»·PEaware :: N22CM KTOA-KVNY

N22CM :: KTOA-KVNY

FLIGHT INFORMATION

Flight Status: Arrived
Operator: Privately registered:
United States
More flights under this callsign
Pilot: Anthony H. (22875)
Aircraft: CESSNA 172 SKYHAWK
(C172)
More flights by this aircraft type
Origin: KTOA Zamperini
United States
Destination: KVNY Van Nuys
United States
More flights between these airports :: More routes between these airports
Route: KTOA KVNY
File this flight plan on PilotEdge
Remarks: CAT 10 LEG1
Altitude:
(Current/Filed)
2,500ft
Speed:
(Current/Filed)
100kts
Departed: 10-Feb-19 05:09 PM
Arrived: 10-Feb-19 05:55 PM
Distance/Time
Traveled:
26nm/0:46
Distance/Time
To Go:
Arrived

Flight Plot

Page will automatically refresh every two minutes.

Flight plan parsing failed; only flown route is shown


Map Options




Map Legend


Flown Route
Filed Route
Departure Airport
Arrival Airport
Navaid (VOR, NDB)
Fix

Horizontal Profiles

Position Reports

Time Latitude Longitude Heading Altitude Ground
Speed
10-Feb-19 16:58 33.803346 -118.344052 39 99ft 0kts
10-Feb-19 16:59 33.803346 -118.344052 39 99ft 0kts
10-Feb-19 17:00 33.803346 -118.344052 39 99ft 0kts
10-Feb-19 17:01 33.803385 -118.344015 38 99ft 1kts
10-Feb-19 17:02 33.802718 -118.342799 128 102ft 12kts
10-Feb-19 17:03 33.799465 -118.337936 128 107ft 16kts
10-Feb-19 17:04 33.797505 -118.334860 78 109ft 7kts
10-Feb-19 17:05 33.799151 -118.333223 37 101ft 0kts
10-Feb-19 17:06 33.799151 -118.333223 37 101ft 0kts
10-Feb-19 17:07 33.799151 -118.333223 37 101ft 0kts
10-Feb-19 17:08 33.806815 -118.342514 322 559ft 73kts
10-Feb-19 17:09 33.828045 -118.343136 24 1675ft 81kts
10-Feb-19 17:10 33.849281 -118.334382 15 2423ft 83kts
10-Feb-19 17:11 33.871216 -118.333557 21 2425ft 81kts
10-Feb-19 17:12 33.872975 -118.309354 101 2427ft 80kts
10-Feb-19 17:13 33.858434 -118.309612 266 2426ft 79kts
10-Feb-19 17:14 33.869590 -118.330147 328 2424ft 80kts
10-Feb-19 17:15 33.878197 -118.315260 123 2427ft 79kts
10-Feb-19 17:16 33.863457 -118.297005 187 2426ft 80kts
10-Feb-19 17:17 33.862082 -118.318346 304 2427ft 80kts
10-Feb-19 17:18 33.878961 -118.326835 54 2426ft 80kts
10-Feb-19 17:19 33.870882 -118.304030 128 2427ft 80kts
10-Feb-19 17:20 33.853324 -118.297310 220 2427ft 80kts
10-Feb-19 17:21 33.835516 -118.289125 132 2427ft 80kts
10-Feb-19 17:22 33.823536 -118.267549 74 2426ft 80kts
10-Feb-19 17:23 33.839231 -118.248555 41 2426ft 81kts
10-Feb-19 17:24 33.857208 -118.252185 311 2427ft 80kts
10-Feb-19 17:25 33.872242 -118.272476 311 2426ft 81kts
10-Feb-19 17:26 33.877211 -118.294740 223 2428ft 80kts
10-Feb-19 17:27 33.860433 -118.312836 218 2426ft 81kts
10-Feb-19 17:28 33.842601 -118.301551 132 2427ft 81kts
10-Feb-19 17:29 33.831096 -118.279743 70 2426ft 80kts
10-Feb-19 17:30 33.845699 -118.285247 281 2427ft 80kts
10-Feb-19 17:31 33.855320 -118.309410 305 2426ft 81kts
10-Feb-19 17:32 33.868714 -118.330737 339 2426ft 80kts
10-Feb-19 17:33 33.877481 -118.312722 100 2427ft 80kts
10-Feb-19 17:34 33.871284 -118.287947 155 2426ft 80kts
10-Feb-19 17:35 33.860247 -118.302942 280 2427ft 80kts
10-Feb-19 17:36 33.868841 -118.327751 304 2426ft 81kts
10-Feb-19 17:37 33.883499 -118.348147 340 2426ft 81kts
10-Feb-19 17:38 33.904206 -118.360509 326 2430ft 89kts
10-Feb-19 17:39 33.925431 -118.378884 323 2427ft 96kts
10-Feb-19 17:40 33.946967 -118.398547 322 2426ft 97kts
10-Feb-19 17:41 33.968612 -118.418437 322 2426ft 97kts
10-Feb-19 17:42 33.990273 -118.438367 322 2426ft 97kts
10-Feb-19 17:43 34.012815 -118.456144 347 2427ft 97kts
10-Feb-19 17:44 34.039522 -118.461747 351 2426ft 97kts
10-Feb-19 17:45 34.066527 -118.466547 351 2426ft 98kts
10-Feb-19 17:46 34.093448 -118.471104 352 2426ft 98kts
10-Feb-19 17:47 34.120463 -118.475490 352 2426ft 98kts
10-Feb-19 17:48 34.147271 -118.481116 336 2345ft 98kts
10-Feb-19 17:49 34.167683 -118.498153 338 2263ft 79kts
10-Feb-19 17:50 34.189145 -118.506351 336 2208ft 89kts
10-Feb-19 17:51 34.211256 -118.506595 6 2233ft 86kts
10-Feb-19 17:52 34.234090 -118.499041 79 1524ft 91kts
10-Feb-19 17:53 34.219220 -118.491288 175 864ft 61kts
10-Feb-19 17:54 34.208164 -118.490984 205 806ft 12kts
10-Feb-19 17:55 34.208034 -118.491205 264 806ft 0kts
10-Feb-19 17:56 34.211306 -118.491733 353 806ft 12kts
10-Feb-19 17:57 34.211323 -118.492050 83 806ft 0kts
10-Feb-19 17:58 34.211323 -118.492050 83 806ft 0kts
10-Feb-19 17:59 34.211323 -118.492050 83 806ft 0kts
10-Feb-19 18:00 34.211323 -118.492050 83 806ft 0kts
10-Feb-19 18:01 34.211323 -118.492050 83 806ft 0kts
10-Feb-19 18:03 34.211323 -118.492050 83 806ft 0kts
10-Feb-19 18:04 34.211323 -118.492050 83 806ft 0kts
10-Feb-19 18:05 34.211323 -118.492050 83 806ft 0kts
10-Feb-19 18:06 34.211323 -118.492050 83 806ft 0kts
10-Feb-19 18:07 34.211323 -118.492050 83 806ft 0kts
10-Feb-19 18:08 34.211323 -118.492050 83 806ft 0kts
10-Feb-19 18:09 34.211323 -118.492050 83 806ft 0kts

Navigation Log

Ident Type
Flight plan parsing failed, navigation log unavailable